Startpagina
METAR-TAF:

METAR-TAF

Vliegvelden :

Luik, België

Liege Airport

breedte: 50-39N, lengte: 005-27E, hoogte: 186 m

Actueel weer

Dit bericht is 25 minuten geleden gemaakt, om 06:20 UTC
Wind 7 kt uit het westen
Temperatuur 2°C
Vochtigheid 69%
Druk 1018 hPa
Zicht 10 km of meer
Verspreide wolken op 4500 ft

METAR: EBLG 190620Z 26007KT 9999 SCT045 02/M03 Q1018 TEMPO 4000 SHRA

Tijdstip: 07:45 (06:45 UTC)

Verwachting

Dit bericht is 1 uur en het 45 minuten geleden gemaakt, om 05:00 UTC
Verwachting geldig van 19 om 06 UTC tot 20 om 12 UTC
Wind 10 kt uit het westen
Zicht 10 km of meer
Weinig wolken op 2500 ft
Verspreide wolken op 4000 ft
Wijzigt naar
van 20 om 08 UTC tot 20 om 10 UTC
Wind 10 kt uit het zuidzuidwesten

TAF: EBLG 190500Z 1906/2012 27010KT 9999 FEW025 SCT040 BECMG 2008/2010 21010KT

Waarnemingen en weersverwachtingen van meer dan 4000 vliegvelden (METAR en TAF).

De beschikbare stations zijn de gele en rode punten op de kaart.

Ga met uw muis naar het station om de naam te zien.

Klik dan om waarnemingen en weersverwachtingen te zien.

kaart wijzigen: klik op de groene knoppen met een zwart kruis om in te zoomen, op de groene knop met een streepje om uit te zoomen of op de groene pijlen voor aangrenzende kaarten.


METAR-TAF: